Chicago, Illinois
Traffic Map
Current Weather Conditions
Chicago, Illinois
Overcast Haze
Overcast
67°
Feels Like: 67°
Wind Chill: 67° Ceiling: 600
Heat Index: 67° Visibility: 2.5mi
Dew Point: 63° Wind: 0mph
Humidity: 87% Direction: ° ()
Pressure: 30.06in Gusts: 0mph
Raw Report DataKMDW 301153Z 00000KT 2 1/2SM BR OVC006 19/17 A3006 RMK AO2 SLP173 70015 T01940172 10206 20189 53014 $
Traffic Incident Summary
Active as of:
Severity:
Category:
InformationThere was an issue retrieving the traffic information for this location. Please try a different location or try again shortly.
Advertisements
Track Severe Weather on mobile